Time;durP1;ratioP1;P1;durP2;ratioP2;P2;SDS_P1;SDS_P2;PMS_P1;PMS_P2;Temp;Humidity;BMP_temperature;BMP_pressure;BME280_temperature;BME280_humidity;BME280_pressure;Samples;Min_cycle;Max_cycle;Signal;HPM_P1;HPM_P2
2022/06/09 00:00:23;;;;;;;6.47;1.55;;;16.60;99.90;;;;;;5059874;28;20129;-79
2022/06/09 00:03:10;;;;;;;;;;;;;;;;;;;;;
2022/06/09 00:05:48;;;;;;;11.13;3.10;;;16.90;99.90;;;;;;5060733;28;39209;-79
2022/06/09 00:08:20;;;;;;;5.47;1.50;;;16.80;99.90;;;;;;5059866;28;20052;-79
2022/06/09 00:11:06;;;;;;;3.42;1.20;;;16.80;99.90;;;;;;5076864;28;20045;-79
2022/06/09 00:13:47;;;;;;;4.47;1.90;;;16.80;99.90;;;;;;5058617;28;20048;-79
2022/06/09 00:17:05;;;;;;;8.07;1.73;;;16.80;99.90;;;;;;5055244;28;20825;-80
2022/06/09 00:19:40;;;;;;;7.88;2.17;;;16.90;99.90;;;;;;5063127;28;20880;-80
2022/06/09 00:22:18;;;;;;;8.10;1.83;;;16.70;99.90;;;;;;5061014;28;21199;-79
2022/06/09 00:24:59;;;;;;;7.60;2.10;;;16.60;99.90;;;;;;5059477;28;20526;-79
2022/06/09 00:27:36;;;;;;;9.27;1.55;;;16.60;99.90;;;;;;5061439;28;20107;-79
2022/06/09 00:30:19;;;;;;;3.88;1.30;;;16.50;99.90;;;;;;5060458;28;20156;-80
2022/06/09 00:32:56;;;;;;;8.88;2.08;;;16.50;99.90;;;;;;5075561;28;20056;-80
2022/06/09 00:35:46;;;;;;;;;;;;;;;;;;;;;
2022/06/09 00:38:23;;;;;;;7.40;2.25;;;16.40;99.90;;;;;;5062496;28;41371;-79
2022/06/09 00:43:54;;;;;;;7.53;1.92;;;16.40;99.90;;;;;;5063340;28;20077;-79
2022/06/09 00:46:28;;;;;;;2.53;1.40;;;16.30;99.90;;;;;;5058441;28;20045;-80
2022/06/09 00:49:35;;;;;;;5.28;1.80;;;16.50;99.90;;;;;;5042713;28;20052;-79
2022/06/09 00:52:12;;;;;;;12.98;1.98;;;16.20;99.90;;;;;;5045606;28;20040;-79
2022/06/09 00:55:03;;;;;;;4.15;2.13;;;16.30;99.90;;;;;;5040403;28;20045;-80
2022/06/09 00:57:48;;;;;;;8.90;2.05;;;16.10;99.90;;;;;;5043904;28;20052;-80
2022/06/09 01:00:52;;;;;;;3.38;1.40;;;16.20;99.90;;;;;;5026104;28;20049;-79
2022/06/09 01:03:48;;;;;;;11.45;4.20;;;16.00;99.90;;;;;;5055926;28;20802;-80
2022/06/09 01:06:43;;;;;;;5.93;1.80;;;16.40;99.90;;;;;;5043906;28;20088;-79
2022/06/09 01:09:25;;;;;;;;;;;;;;;;;;;;;
2022/06/09 01:12:01;;;;;;;9.40;2.05;;;16.10;99.90;;;;;;5055145;28;42830;-79
2022/06/09 01:14:41;;;;;;;8.27;2.20;;;16.10;99.90;;;;;;5041874;28;20037;-79
2022/06/09 01:17:51;;;;;;;7.90;2.38;;;16.00;99.90;;;;;;5043814;28;20049;-80
2022/06/09 01:20:34;;;;;;;9.38;1.80;;;16.00;99.90;;;;;;4987705;28;20042;-79
2022/06/09 01:23:46;;;;;;;10.88;2.60;;;16.00;99.90;;;;;;4981389;28;20121;-79
2022/06/09 01:26:49;;;;;;;6.20;2.00;;;16.00;99.90;;;;;;4979540;28;20085;-79
2022/06/09 01:29:46;;;;;;;10.77;2.15;;;16.00;99.90;;;;;;5047069;28;20041;-79
2022/06/09 01:32:42;;;;;;;9.98;1.88;;;15.90;99.90;;;;;;5059979;28;20048;-79
2022/06/09 01:35:33;;;;;;;5.60;1.63;;;15.90;99.90;;;;;;5058178;28;20064;-80
2022/06/09 01:38:11;;;;;;;4.85;1.83;;;15.90;99.90;;;;;;5061830;28;20619;-80
2022/06/09 01:40:50;;;;;;;8.70;2.53;;;15.80;99.90;;;;;;5058633;28;20172;-80
2022/06/09 01:43:21;;;;;;;5.68;1.20;;;15.80;99.90;;;;;;5054847;28;20095;-79
2022/06/09 01:46:24;;;;;;;7.55;2.00;;;15.80;99.90;;;;;;5057799;28;20044;-79
2022/06/09 01:49:03;;;;;;;6.43;1.80;;;15.80;99.90;;;;;;5058634;28;20051;-79
2022/06/09 01:54:42;;;;;;;9.18;1.48;;;15.70;99.90;;;;;;5054549;28;20053;-79
2022/06/09 01:57:31;;;;;;;6.10;2.78;;;15.70;99.90;;;;;;5063569;28;20120;-79
2022/06/09 02:00:21;;;;;;;11.85;1.90;;;15.70;99.90;;;;;;5047203;28;20053;-79
2022/06/09 02:03:36;;;;;;;3.80;1.70;;;15.70;99.90;;;;;;5064311;28;20041;-79
2022/06/09 02:06:19;;;;;;;10.13;3.25;;;15.60;99.90;;;;;;5055034;28;20733;-79
2022/06/09 02:08:55;;;;;;;7.82;2.70;;;15.60;99.90;;;;;;5079370;28;20160;-78
2022/06/09 02:11:28;;;;;;;9.25;2.58;;;15.60;99.90;;;;;;5062573;28;20041;-80
2022/06/09 02:14:05;;;;;;;7.75;1.50;;;15.50;99.90;;;;;;5063634;28;20080;-79
2022/06/09 02:16:38;;;;;;;4.85;2.03;;;15.60;99.90;;;;;;5075940;28;20084;-79
2022/06/09 02:19:12;;;;;;;5.72;1.60;;;15.60;99.90;;;;;;5063179;28;20065;-79
2022/06/09 02:21:56;;;;;;;10.13;2.10;;;15.50;99.90;;;;;;5063444;28;20045;-79
2022/06/09 02:24:35;;;;;;;5.82;1.85;;;15.50;99.90;;;;;;5060772;28;20052;-79
2022/06/09 02:27:09;;;;;;;4.88;1.60;;;15.50;99.90;;;;;;5064490;28;20115;-79
2022/06/09 02:29:57;;;;;;;9.93;2.42;;;15.40;99.90;;;;;;5062917;28;20044;-79
2022/06/09 02:32:35;;;;;;;8.77;2.10;;;15.40;99.90;;;;;;5062974;28;20049;-79
2022/06/09 02:35:12;;;;;;;7.20;2.70;;;15.40;99.90;;;;;;5081279;28;20065;-79
2022/06/09 02:37:44;;;;;;;8.57;2.45;;;15.40;99.90;;;;;;5061585;28;20044;-79
2022/06/09 02:40:15;;;;;;;;;;;15.40;99.90;;;;;;5066284;28;20043;-79
2022/06/09 02:43:02;;;;;;;4.15;1.55;;;15.50;99.90;;;;;;5077783;28;19956;-79
2022/06/09 02:45:34;;;;;;;10.82;3.60;;;15.40;99.90;;;;;;5078334;28;20049;-79
2022/06/09 02:48:22;;;;;;;5.22;1.98;;;15.20;99.90;;;;;;5065608;28;20050;-79
2022/06/09 02:50:58;;;;;;;6.07;2.85;;;15.40;99.90;;;;;;5064133;28;20041;-79
2022/06/09 02:53:35;;;;;;;6.07;2.00;;;15.20;99.90;;;;;;5048016;28;20538;-79
2022/06/09 02:56:19;;;;;;;7.78;1.95;;;15.20;99.90;;;;;;5049623;28;20052;-79
2022/06/09 02:59:04;;;;;;;4.90;1.67;;;15.20;99.90;;;;;;5067285;28;20053;-79
2022/06/09 03:02:04;;;;;;;6.53;1.60;;;15.20;99.90;;;;;;5072204;28;20104;-79
2022/06/09 03:04:45;;;;;;;6.75;2.05;;;15.20;99.90;;;;;;5077499;28;20044;-80
2022/06/09 03:07:27;;;;;;;6.70;1.50;;;15.20;99.90;;;;;;5075486;28;20052;-79
2022/06/09 03:10:13;;;;;;;;;;;;;;;;;;;;;
2022/06/09 03:12:58;;;;;;;6.88;1.75;;;15.10;99.90;;;;;;5074308;28;42243;-79
2022/06/09 03:15:29;;;;;;;10.13;2.47;;;15.10;99.90;;;;;;5068791;28;21474;-79
2022/06/09 03:18:10;;;;;;;8.90;2.05;;;15.00;99.90;;;;;;5069002;28;20051;-79
2022/06/09 03:20:51;;;;;;;7.60;1.70;;;15.10;99.90;;;;;;5072729;28;20049;-79
2022/06/09 03:23:31;;;;;;;7.35;2.65;;;15.00;99.90;;;;;;5072111;28;20214;-79
2022/06/09 03:26:22;;;;;;;7.93;2.00;;;15.00;99.90;;;;;;5065060;28;20055;-79
2022/06/09 03:29:01;;;;;;;7.28;1.80;;;15.00;99.90;;;;;;5057524;28;20143;-79
2022/06/09 03:32:08;;;;;;;6.88;1.85;;;15.00;99.90;;;;;;5065030;28;20044;-79
2022/06/09 03:35:08;;;;;;;3.42;1.65;;;15.00;99.90;;;;;;5060080;28;20071;-79
2022/06/09 03:37:56;;;;;;;10.05;2.40;;;14.90;99.90;;;;;;5063170;28;20076;-79
2022/06/09 03:40:54;;;;;;;;;;;;;;;;;;;;;
2022/06/09 03:43:26;;;;;;;9.52;2.50;;;14.90;99.90;;;;;;5061869;28;44990;-80
2022/06/09 03:46:07;;;;;;;10.43;2.92;;;14.90;99.90;;;;;;5077177;28;20672;-79
2022/06/09 03:49:14;;;;;;;7.30;2.88;;;14.90;99.90;;;;;;5061425;28;20107;-79
2022/06/09 03:51:45;;;;;;;5.18;1.55;;;14.80;99.90;;;;;;5062218;28;20095;-79
2022/06/09 03:54:27;;;;;;;8.05;3.03;;;14.80;99.90;;;;;;5046064;28;20593;-79
2022/06/09 03:57:26;;;;;;;3.97;2.00;;;14.80;99.90;;;;;;5079579;28;20061;-80
2022/06/09 04:00:01;;;;;;;7.28;2.80;;;14.50;99.90;;;;;;5062009;28;20033;-79
2022/06/09 04:02:30;;;;;;;7.05;1.63;;;14.80;99.90;;;;;;5056000;28;20049;-79
2022/06/09 04:05:06;;;;;;;5.97;2.45;;;14.70;99.90;;;;;;5062745;28;20045;-79
2022/06/09 04:07:45;;;;;;;6.05;1.77;;;14.80;99.90;;;;;;5062760;28;20045;-79
2022/06/09 04:10:31;;;;;;;7.78;3.80;;;14.70;99.90;;;;;;5061006;28;20176;-79
2022/06/09 04:13:15;;;;;;;7.40;2.03;;;14.80;99.90;;;;;;5063417;28;20049;-79
2022/06/09 04:15:58;;;;;;;10.88;3.20;;;14.80;99.90;;;;;;5059233;28;20535;-79
2022/06/09 04:21:54;;;;;;;9.68;1.73;;;14.70;99.90;;;;;;5063033;28;20041;-79
2022/06/09 04:24:29;;;;;;;7.55;1.50;;;14.80;99.90;;;;;;5060685;28;20063;-79
2022/06/09 04:27:03;;;;;;;10.88;2.15;;;14.80;99.90;;;;;;5062986;28;20083;-79
2022/06/09 04:29:38;;;;;;;18.25;2.78;;;14.80;99.90;;;;;;5061762;28;20087;-79
2022/06/09 04:32:16;;;;;;;9.38;2.55;;;14.80;99.90;;;;;;5060357;28;20904;-79
2022/06/09 04:35:05;;;;;;;7.65;1.90;;;14.80;99.90;;;;;;5062825;28;20037;-77
2022/06/09 04:38:10;;;;;;;6.07;1.92;;;14.80;99.90;;;;;;5062695;28;20049;-80
2022/06/09 04:40:58;;;;;;;8.55;2.63;;;14.80;99.90;;;;;;5061305;28;20079;-80
2022/06/09 04:43:34;;;;;;;5.50;1.45;;;14.90;99.90;;;;;;5045128;28;20052;-80
2022/06/09 04:46:10;;;;;;;12.65;3.15;;;14.90;99.90;;;;;;5059607;28;20049;-80
2022/06/09 04:52:13;;;;;;;7.15;2.25;;;14.90;99.90;;;;;;5063464;28;20107;-80
2022/06/09 04:54:49;;;;;;;5.22;2.47;;;14.90;99.90;;;;;;5041238;28;20673;-80
2022/06/09 04:57:24;;;;;;;6.57;1.90;;;14.90;99.90;;;;;;5060865;28;20056;-79
2022/06/09 05:03:17;;;;;;;4.05;1.98;;;14.90;99.90;;;;;;5059304;28;20037;-80
2022/06/09 05:05:51;;;;;;;7.40;2.72;;;14.80;99.90;;;;;;5059740;28;20033;-81
2022/06/09 05:08:36;;;;;;;4.38;1.65;;;14.90;99.90;;;;;;5073948;28;20073;-81
2022/06/09 05:11:15;;;;;;;14.68;4.40;;;14.90;99.90;;;;;;5070030;28;20584;-87
2022/06/09 05:13:53;;;;;;;11.30;2.00;;;14.90;99.90;;;;;;5059138;28;20044;-79
2022/06/09 05:16:33;;;;;;;8.48;2.38;;;14.70;99.90;;;;;;5075268;28;20468;-83
2022/06/09 05:19:34;;;;;;;7.93;2.97;;;14.90;99.90;;;;;;5063646;28;20142;-84
2022/06/09 05:22:18;;;;;;;14.38;2.38;;;14.90;99.90;;;;;;5065719;28;20041;-84
2022/06/09 05:24:57;;;;;;;9.05;2.15;;;14.90;99.90;;;;;;5066595;28;20134;-84
2022/06/09 05:27:51;;;;;;;;;;;;;;;;;;;;;
2022/06/09 05:30:38;;;;;;;8.05;1.85;;;15.00;99.90;;;;;;5065310;28;42101;-83
2022/06/09 05:33:20;;;;;;;10.27;2.35;;;14.90;99.90;;;;;;5063671;28;20040;-84
2022/06/09 05:35:56;;;;;;;5.05;1.90;;;15.00;99.90;;;;;;5066143;28;20568;-84
2022/06/09 05:47:23;;;;;;;8.38;2.17;;;14.90;99.90;;;;;;5068096;28;20037;-83
2022/06/09 05:49:54;;;;;;;6.45;3.45;;;15.00;99.90;;;;;;5066791;28;20061;-83
2022/06/09 05:52:31;;;;;;;7.65;2.35;;;15.00;99.90;;;;;;5080265;28;20057;-83
2022/06/09 05:55:23;;;;;;;7.70;2.53;;;15.00;99.90;;;;;;5063898;28;20057;-84
2022/06/09 05:58:13;;;;;;;13.95;3.08;;;15.10;99.90;;;;;;5049307;28;20041;-83
2022/06/09 06:01:01;;;;;;;7.28;2.88;;;15.10;99.90;;;;;;5063664;28;20049;-82
2022/06/09 06:03:32;;;;;;;8.95;2.47;;;15.10;99.90;;;;;;5061519;28;20059;-83
2022/06/09 06:08:57;;;;;;;14.73;2.58;;;15.10;99.90;;;;;;5067133;28;20103;-84
2022/06/09 06:11:32;;;;;;;6.55;2.05;;;15.00;99.90;;;;;;5082022;28;20530;-84
2022/06/09 06:14:26;;;;;;;12.45;2.22;;;15.10;99.90;;;;;;5066269;28;20660;-84
2022/06/09 06:16:57;;;;;;;9.65;2.60;;;15.20;99.90;;;;;;5083083;28;20055;-81
2022/06/09 06:19:26;;;;;;;8.73;2.22;;;15.20;99.90;;;;;;5065614;28;20041;-83
2022/06/09 06:22:01;;;;;;;11.23;2.78;;;15.30;99.90;;;;;;5066447;28;20118;-83
2022/06/09 06:24:42;;;;;;;6.40;3.03;;;15.00;99.90;;;;;;5081627;28;20092;-83
2022/06/09 06:30:30;;;;;;;11.05;2.35;;;15.30;99.90;;;;;;5067461;28;20048;-82
2022/06/09 06:33:22;;;;;;;11.52;2.25;;;15.40;99.90;;;;;;5063410;28;20617;-81
2022/06/09 06:36:02;;;;;;;8.68;2.35;;;15.40;99.90;;;;;;5065329;28;20053;-81
2022/06/09 06:38:37;;;;;;;8.57;2.80;;;15.50;99.90;;;;;;5064423;28;20546;-81
2022/06/09 06:41:18;;;;;;;15.40;3.53;;;15.50;99.90;;;;;;5076223;28;20561;-81
2022/06/09 06:47:07;;;;;;;5.05;2.38;;;15.50;99.90;;;;;;5048953;28;20756;-78
2022/06/09 06:49:36;;;;;;;8.70;1.85;;;15.60;99.90;;;;;;5058120;28;20037;-77
2022/06/09 06:52:07;;;;;;;7.43;2.83;;;15.60;99.90;;;;;;5057487;28;20075;-77
2022/06/09 06:54:42;;;;;;;8.55;2.13;;;15.70;99.90;;;;;;5062766;28;20136;-77
2022/06/09 06:57:14;;;;;;;7.68;2.08;;;15.70;99.90;;;;;;5062524;28;20045;-78
2022/06/09 06:59:45;;;;;;;6.72;3.33;;;15.70;99.90;;;;;;5061823;28;20036;-77
2022/06/09 07:02:36;;;;;;;10.75;2.75;;;15.80;99.90;;;;;;5061485;28;20124;-77
2022/06/09 07:05:09;;;;;;;6.40;2.92;;;16.00;99.90;;;;;;5076372;28;20522;-77
2022/06/09 07:07:58;;;;;;;;;;;;;;;;;;;;;
2022/06/09 07:10:27;;;;;;;9.07;2.25;;;15.80;99.90;;;;;;5058743;28;41646;-77
2022/06/09 07:12:59;;;;;;;9.80;2.67;;;16.00;99.90;;;;;;5061447;28;20040;-77
2022/06/09 07:15:55;;;;;;;15.23;2.65;;;16.00;99.90;;;;;;5062894;28;21735;-77
2022/06/09 07:18:32;;;;;;;8.65;1.83;;;16.10;99.90;;;;;;5081232;28;20439;-77
2022/06/09 07:21:09;;;;;;;8.98;2.33;;;16.10;99.90;;;;;;5059322;28;20124;-76
2022/06/09 07:23:40;;;;;;;9.30;3.17;;;16.10;99.90;;;;;;5066608;28;20056;-77
2022/06/09 07:29:33;;;;;;;14.32;2.60;;;16.20;99.90;;;;;;5042873;28;22313;-77
2022/06/09 07:32:28;;;;;;;6.88;1.90;;;16.30;99.90;;;;;;5058812;28;20044;-76
2022/06/09 07:35:04;;;;;;;6.00;2.78;;;16.40;99.90;;;;;;5062253;28;20056;-77
2022/06/09 07:37:40;;;;;;;7.43;2.20;;;16.70;99.90;;;;;;5074969;28;20095;-77
2022/06/09 07:40:19;;;;;;;9.93;2.50;;;16.80;99.90;;;;;;5079183;28;20060;-77
2022/06/09 07:43:03;;;;;;;10.02;2.00;;;17.20;99.90;;;;;;5060915;28;20063;-77
2022/06/09 07:45:35;;;;;;;4.65;1.50;;;17.10;99.90;;;;;;5062426;28;20139;-77
2022/06/09 07:50:55;;;;;;;7.82;1.95;;;17.20;99.90;;;;;;5061725;28;20057;-77
2022/06/09 07:53:35;;;;;;;8.02;2.33;;;16.90;99.90;;;;;;5047144;28;20805;-77
2022/06/09 07:56:09;;;;;;;7.35;1.90;;;17.10;99.90;;;;;;5060005;28;20055;-77
2022/06/09 07:58:46;;;;;;;9.80;2.78;;;17.00;99.90;;;;;;5064087;28;20531;-78
2022/06/09 08:01:54;;;;;;;11.13;2.78;;;16.90;99.90;;;;;;5058170;28;20279;-77
2022/06/09 08:04:34;;;;;;;6.82;2.88;;;17.00;99.90;;;;;;5074025;28;20053;-77
2022/06/09 08:07:09;;;;;;;6.13;2.13;;;17.00;99.90;;;;;;5057929;28;20072;-77
2022/06/09 08:09:46;;;;;;;9.30;2.10;;;17.40;99.90;;;;;;5079116;28;20102;-77
2022/06/09 08:12:13;;;;;;;6.63;2.72;;;17.60;99.90;;;;;;5061288;28;20510;-78
2022/06/09 08:14:48;;;;;;;8.80;1.85;;;17.60;99.90;;;;;;5059522;28;20862;-78
2022/06/09 08:17:27;;;;;;;8.73;3.97;;;17.70;99.90;;;;;;5056443;28;20045;-77
2022/06/09 08:19:53;;;;;;;11.35;2.58;;;17.80;99.90;;;;;;5063061;28;20047;-77
2022/06/09 08:22:19;;;;;;;8.55;2.85;;;18.00;99.90;;;;;;5062012;28;20419;-77
2022/06/09 08:24:46;;;;;;;5.30;2.15;;;18.10;99.90;;;;;;5066301;28;20116;-77
2022/06/09 08:27:12;;;;;;;4.40;1.63;;;18.20;99.90;;;;;;5062695;28;20033;-78
2022/06/09 08:29:38;;;;;;;5.50;2.20;;;18.30;99.90;;;;;;5063452;28;20079;-77
2022/06/09 08:32:08;;;;;;;5.80;2.08;;;18.20;99.90;;;;;;5058575;28;20108;-78
2022/06/09 08:35:04;;;;;;;8.05;2.95;;;18.20;99.90;;;;;;5063234;28;20578;-78
2022/06/09 08:38:07;;;;;;;6.30;1.98;;;18.30;99.90;;;;;;5064212;28;20048;-77
2022/06/09 08:41:08;;;;;;;4.13;1.30;;;18.20;99.90;;;;;;5066832;28;20048;-77
2022/06/09 08:44:03;;;;;;;5.70;1.70;;;18.40;99.90;;;;;;5053177;28;20048;-77
2022/06/09 08:46:44;;;;;;;10.25;2.42;;;18.60;99.90;;;;;;5062821;28;20140;-77
2022/06/09 08:49:55;;;;;;;7.30;2.33;;;18.80;99.90;;;;;;5044914;28;21308;-79
2022/06/09 08:52:41;;;;;;;3.72;1.33;;;18.80;99.90;;;;;;5049405;28;20044;-78
2022/06/09 08:55:45;;;;;;;4.28;1.35;;;18.90;99.90;;;;;;5062427;28;20044;-78
2022/06/09 08:58:31;;;;;;;4.45;1.73;;;18.90;99.90;;;;;;5065840;28;20115;-79
2022/06/09 09:01:44;;;;;;;9.63;1.70;;;18.90;99.90;;;;;;5066798;28;20147;-78
2022/06/09 09:04:29;;;;;;;9.95;2.40;;;19.00;99.90;;;;;;5061542;28;20045;-78
2022/06/09 09:07:30;;;;;;;9.00;1.88;;;19.10;99.90;;;;;;5076354;28;20549;-78
2022/06/09 09:10:22;;;;;;;5.55;1.80;;;19.20;99.90;;;;;;5061241;28;20041;-78
2022/06/09 09:13:13;;;;;;;;;;;19.00;99.90;;;;;;5080220;28;20543;-78
2022/06/09 09:16:02;;;;;;;;;;;;;;;;;;;;;
2022/06/09 09:19:05;;;;;;;4.47;1.88;;;18.80;99.90;;;;;;5062470;28;42583;-78
2022/06/09 09:21:59;;;;;;;8.35;1.85;;;19.20;99.90;;;;;;5047763;28;20076;-77
2022/06/09 09:25:19;;;;;;;6.22;1.40;;;19.00;99.90;;;;;;5062663;28;20044;-77
2022/06/09 09:27:57;;;;;;;7.00;1.50;;;19.20;99.90;;;;;;5049010;28;20614;-77
2022/06/09 09:30:43;;;;;;;;;;;;;;;;;;;;;
2022/06/09 09:33:41;;;;;;;;;;;;;;;;;;;;;
2022/06/09 09:36:39;;;;;;;5.80;1.23;;;19.80;99.90;;;;;;5060459;28;39041;-78
2022/06/09 09:39:55;;;;;;;6.28;1.45;;;19.80;99.90;;;;;;5061522;28;20044;-78
2022/06/09 09:42:26;;;;;;;5.32;2.20;;;20.00;99.90;;;;;;5027684;28;20084;-78
2022/06/09 09:45:01;;;;;;;6.50;1.93;;;20.00;99.90;;;;;;5058749;28;21327;-77
2022/06/09 09:47:55;;;;;;;5.68;2.55;;;20.00;99.90;;;;;;5057460;28;20064;-78
2022/06/09 09:54:10;;;;;;;3.90;1.70;;;20.40;99.90;;;;;;5009229;28;20084;-78
2022/06/09 09:56:42;;;;;;;4.82;1.40;;;20.40;99.90;;;;;;5056698;28;20052;-80
2022/06/09 09:59:51;;;;;;;7.53;2.28;;;20.30;99.90;;;;;;5059085;28;20045;-79
2022/06/09 10:08:57;;;;;;;7.00;2.25;;;20.40;99.90;;;;;;5059066;28;20896;-83
2022/06/09 10:14:38;;;;;;;5.47;1.70;;;20.50;99.90;;;;;;5061848;28;20032;-83
2022/06/09 10:24:55;;;;;;;;;;;;;;;;;;;;;
2022/06/09 10:27:41;;;;;;;6.95;1.73;;;20.70;99.90;;;;;;5003123;28;42560;-80
2022/06/09 10:30:33;;;;;;;5.32;1.38;;;20.80;99.90;;;;;;4989152;28;20058;-80
2022/06/09 10:33:31;;;;;;;5.57;1.45;;;20.80;99.90;;;;;;5062572;28;20087;-80
2022/06/09 10:36:26;;;;;;;7.18;1.52;;;20.70;99.90;;;;;;5085108;28;20063;-80
2022/06/09 10:39:23;;;;;;;5.28;1.58;;;21.00;99.90;;;;;;5082263;28;20048;-80
2022/06/09 10:42:14;;;;;;;3.88;1.40;;;20.70;99.90;;;;;;5065627;28;20049;-79
2022/06/09 10:44:50;;;;;;;5.53;1.77;;;20.80;99.90;;;;;;5080333;28;20052;-79
2022/06/09 10:58:11;;;;;;;5.47;1.30;;;20.70;99.60;;;;;;5068809;28;20052;-79
2022/06/09 11:00:51;;;;;;;5.63;1.55;;;20.70;99.10;;;;;;5051792;28;20037;-80
2022/06/09 11:03:52;;;;;;;4.88;1.42;;;20.80;99.00;;;;;;5050830;28;20048;-80
2022/06/09 11:06:54;;;;;;;4.30;1.38;;;21.10;98.70;;;;;;5066574;28;20126;-79
2022/06/09 11:09:58;;;;;;;;;;;;;;;;;;;;;
2022/06/09 11:13:01;;;;;;;6.43;1.45;;;21.40;97.90;;;;;;5069045;28;40043;-80
2022/06/09 11:16:04;;;;;;;4.57;1.42;;;21.40;97.50;;;;;;5084618;28;20541;-80
2022/06/09 11:19:16;;;;;;;7.22;1.80;;;21.60;97.30;;;;;;5067302;28;20127;-79
2022/06/09 11:22:22;;;;;;;7.38;1.95;;;21.10;97.00;;;;;;5051196;28;20056;-80
2022/06/09 11:25:30;;;;;;;2.80;1.42;;;20.80;97.00;;;;;;5051292;28;20128;-79
2022/06/09 11:31:48;;;;;;;9.73;2.22;;;21.00;97.20;;;;;;5066916;28;20060;-80
2022/06/09 11:34:32;;;;;;;5.15;1.75;;;21.30;97.30;;;;;;5048733;28;20574;-79
2022/06/09 11:37:32;;;;;;;7.50;2.20;;;21.40;97.20;;;;;;5079130;28;20171;-80
2022/06/09 11:40:26;;;;;;;7.07;1.88;;;21.50;96.90;;;;;;5080997;28;20531;-80
2022/06/09 11:43:18;;;;;;;;;;;;;;;;;;;;;
2022/06/09 11:46:02;;;;;;;3.85;1.30;;;21.40;96.90;;;;;;5064535;28;44080;-80
2022/06/09 11:49:17;;;;;;;7.03;1.55;;;21.40;96.50;;;;;;5064437;28;20045;-78
2022/06/09 11:52:09;;;;;;;5.60;1.58;;;21.70;96.20;;;;;;5066469;28;20049;-78
2022/06/09 11:54:53;;;;;;;6.45;1.40;;;21.90;96.10;;;;;;5048656;28;20543;-78
2022/06/09 11:57:55;;;;;;;4.72;1.90;;;22.00;95.60;;;;;;5048335;28;20048;-78
2022/06/09 12:00:49;;;;;;;5.22;1.33;;;22.60;95.70;;;;;;5064555;28;20605;-78
2022/06/09 12:03:40;;;;;;;7.38;1.92;;;22.40;95.00;;;;;;5081863;28;20040;-80
2022/06/09 12:06:46;;;;;;;3.15;1.30;;;22.50;94.90;;;;;;5080788;28;20227;-80
2022/06/09 12:09:51;;;;;;;4.72;1.65;;;21.80;94.20;;;;;;5064373;28;20045;-79
2022/06/09 12:13:06;;;;;;;5.75;1.38;;;22.30;94.20;;;;;;5064837;28;20041;-80
2022/06/09 12:16:11;;;;;;;3.03;1.15;;;22.60;93.80;;;;;;5063693;28;20044;-80
2022/06/09 12:19:09;;;;;;;4.20;1.25;;;22.10;93.60;;;;;;5066008;28;20637;-80
2022/06/09 12:21:58;;;;;;;7.05;1.13;;;22.30;93.50;;;;;;5065672;28;20037;-79
2022/06/09 12:25:25;;;;;;;4.32;1.10;;;22.50;93.10;;;;;;5064232;28;20052;-80
2022/06/09 12:28:06;;;;;;;6.07;1.38;;;22.30;92.50;;;;;;5028587;28;20084;-80
2022/06/09 12:31:19;;;;;;;3.20;1.85;;;22.30;92.60;;;;;;5064879;28;20040;-80
2022/06/09 12:34:13;;;;;;;5.88;1.60;;;22.00;92.60;;;;;;5034065;28;20060;-80
2022/06/09 12:37:07;;;;;;;;;;;;;;;;;;;;;
2022/06/09 12:40:08;;;;;;;3.55;1.52;;;22.30;91.90;;;;;;5065008;28;38915;-80
2022/06/09 12:42:51;;;;;;;5.32;1.30;;;22.40;91.40;;;;;;5048078;28;20053;-80
2022/06/09 12:45:58;;;;;;;3.60;1.30;;;22.70;91.60;;;;;;5064251;28;20591;-80
2022/06/09 12:48:42;;;;;;;5.18;1.50;;;22.80;91.40;;;;;;5081110;28;20048;-80
2022/06/09 12:51:36;;;;;;;5.30;1.80;;;22.90;91.50;;;;;;5063903;28;20639;-81
2022/06/09 12:54:23;;;;;;;3.03;1.20;;;23.00;91.40;;;;;;5063431;28;20056;-80
2022/06/09 12:57:10;;;;;;;3.70;1.40;;;23.00;91.20;;;;;;5063958;28;20575;-80
2022/06/09 12:59:47;;;;;;;3.10;1.15;;;22.90;91.00;;;;;;5080765;28;20041;-80
2022/06/09 13:02:38;;;;;;;3.15;1.30;;;22.80;90.70;;;;;;5063873;28;20127;-80
2022/06/09 13:05:19;;;;;;;3.92;1.50;;;22.40;90.40;;;;;;5063578;28;20080;-80
2022/06/09 13:08:28;;;;;;;3.72;1.73;;;22.50;90.60;;;;;;5049667;28;20519;-80
2022/06/09 13:12:50;;;;;;;3.47;1.80;;;22.50;90.70;;;;;;5063597;28;20049;-80
2022/06/09 13:14:14;;;;;;;7.75;1.80;;;22.30;90.80;;;;;;5066167;28;20081;-81
2022/06/09 13:17:09;;;;;;;6.50;1.70;;;22.20;90.80;;;;;;5064921;28;20047;-80
2022/06/09 13:19:50;;;;;;;5.72;2.17;;;22.60;90.90;;;;;;5065460;28;20048;-80
2022/06/09 13:22:50;;;;;;;;;;;;;;;;;;;;;
2022/06/09 13:28:57;;;;;;;2.97;1.13;;;22.80;90.60;;;;;;5066192;28;20048;-80
2022/06/09 13:31:53;;;;;;;5.37;1.30;;;22.80;90.40;;;;;;5055246;28;20051;-82
2022/06/09 13:34:50;;;;;;;7.38;1.52;;;22.70;90.40;;;;;;5064348;28;20643;-82
2022/06/09 13:37:49;;;;;;;4.18;1.35;;;22.40;90.00;;;;;;5063454;28;20060;-81
2022/06/09 13:40:30;;;;;;;2.97;1.27;;;22.60;90.10;;;;;;5047356;28;20045;-82
2022/06/09 13:43:07;;;;;;;7.17;1.73;;;22.60;90.40;;;;;;5063881;28;20059;-81
2022/06/09 13:45:42;;;;;;;4.20;1.30;;;22.60;90.40;;;;;;5065580;28;20263;-78
2022/06/09 13:48:39;;;;;;;2.55;1.60;;;22.70;90.40;;;;;;5067627;28;20587;-79
2022/06/09 13:51:27;;;;;;;3.38;1.10;;;23.00;90.20;;;;;;5067296;28;20524;-78
2022/06/09 13:54:52;;;;;;;5.13;1.35;;;23.10;90.00;;;;;;5067280;28;20044;-85
2022/06/09 13:57:44;;;;;;;3.75;1.90;;;23.30;89.70;;;;;;5059231;28;20133;-82
2022/06/09 14:03:59;;;;;;;5.97;1.63;;;23.20;89.00;;;;;;5068977;28;20052;-80
2022/06/09 14:06:37;;;;;;;4.18;1.80;;;22.80;89.30;;;;;;5083848;28;20506;-81
2022/06/09 14:09:15;;;;;;;6.70;1.63;;;22.50;89.50;;;;;;5066438;28;20620;-82
2022/06/09 14:11:51;;;;;;;4.13;1.30;;;22.60;89.90;;;;;;5066897;28;20154;-81
2022/06/09 14:14:38;;;;;;;5.65;1.70;;;22.90;89.60;;;;;;5051644;28;20048;-85
2022/06/09 14:17:07;;;;;;;6.55;1.50;;;23.30;89.80;;;;;;5066995;28;20056;-83
2022/06/09 14:19:36;;;;;;;2.30;1.23;;;23.40;89.00;;;;;;5065846;28;20110;-76
2022/06/09 14:22:16;;;;;;;3.83;1.73;;;23.60;88.50;;;;;;5085060;28;20045;-82
2022/06/09 14:25:08;;;;;;;2.17;0.90;;;23.70;88.00;;;;;;5067294;28;20111;-81
2022/06/09 14:27:53;;;;;;;5.35;1.50;;;23.70;87.60;;;;;;5068366;28;20045;-81
2022/06/09 14:30:37;;;;;;;6.53;2.60;;;23.50;87.60;;;;;;5067540;28;20048;-82
2022/06/09 14:33:27;;;;;;;4.63;1.50;;;23.20;87.90;;;;;;5068399;28;20584;-80
2022/06/09 14:35:56;;;;;;;3.95;1.77;;;23.00;88.10;;;;;;5070230;28;20053;-80
2022/06/09 14:38:25;;;;;;;8.07;1.63;;;23.00;88.20;;;;;;5054465;28;20037;-80
2022/06/09 14:41:03;;;;;;;5.90;1.50;;;22.90;88.40;;;;;;5068803;28;20044;-80
2022/06/09 14:43:41;;;;;;;6.43;1.52;;;23.20;88.80;;;;;;5069046;28;20173;-81
2022/06/09 14:46:41;;;;;;;4.63;1.60;;;23.30;88.50;;;;;;5083740;28;20551;-81
2022/06/09 14:50:02;;;;;;;6.82;1.50;;;23.50;88.20;;;;;;5052606;28;20047;-81
2022/06/09 14:52:42;;;;;;;4.45;1.20;;;23.50;87.90;;;;;;4980618;28;20054;-81
2022/06/09 14:55:27;;;;;;;3.95;1.35;;;23.70;88.40;;;;;;5045519;28;20123;-82
2022/06/09 15:01:10;;;;;;;2.72;1.23;;;23.10;87.40;;;;;;5068304;28;20045;-81
2022/06/09 15:04:00;;;;;;;5.25;2.20;;;23.20;87.80;;;;;;5062601;28;20525;-81
2022/06/09 15:06:40;;;;;;;4.10;1.60;;;23.30;88.00;;;;;;5050414;28;20094;-81
2022/06/09 15:09:17;;;;;;;4.18;1.42;;;23.30;88.10;;;;;;5065998;28;20056;-80
2022/06/09 15:11:51;;;;;;;4.07;1.70;;;23.30;88.00;;;;;;5051959;28;20530;-80
2022/06/09 15:14:29;;;;;;;5.05;1.80;;;23.30;88.10;;;;;;5066944;28;20045;-81
2022/06/09 15:20:10;;;;;;;3.40;1.60;;;23.40;88.80;;;;;;5062761;28;20527;-81
2022/06/09 15:22:48;;;;;;;4.07;2.30;;;23.30;88.50;;;;;;5066138;28;20254;-80
2022/06/09 15:25:27;;;;;;;5.05;1.73;;;23.00;88.50;;;;;;5065600;28;20045;-80
2022/06/09 15:28:11;;;;;;;3.90;1.35;;;22.80;88.60;;;;;;5066092;28;20049;-80
2022/06/09 15:30:49;;;;;;;4.18;1.25;;;22.70;88.70;;;;;;5049783;28;20049;-81
2022/06/09 15:33:25;;;;;;;7.53;2.47;;;22.50;89.00;;;;;;5064655;28;20133;-80
2022/06/09 15:36:01;;;;;;;6.00;1.83;;;22.50;89.40;;;;;;5049961;28;20137;-80
2022/06/09 15:38:36;;;;;;;3.75;1.83;;;22.30;89.80;;;;;;5065431;28;20093;-80
2022/06/09 15:41:04;;;;;;;6.78;1.83;;;22.20;89.90;;;;;;5047067;28;20269;-80
2022/06/09 15:43:30;;;;;;;8.65;1.98;;;22.00;90.10;;;;;;5067043;28;20518;-80
2022/06/09 15:45:56;;;;;;;5.50;2.25;;;21.90;90.30;;;;;;5066679;28;20123;-81
2022/06/09 15:48:29;;;;;;;6.55;2.35;;;21.80;90.50;;;;;;5048744;28;20045;-81
2022/06/09 15:50:57;;;;;;;7.53;1.73;;;21.80;90.60;;;;;;5063906;28;20044;-81
2022/06/09 15:53:24;;;;;;;8.52;2.58;;;21.70;90.70;;;;;;5066021;28;20137;-80
2022/06/09 15:55:52;;;;;;;5.80;1.70;;;21.60;90.80;;;;;;5064980;28;20689;-81
2022/06/09 15:58:21;;;;;;;3.88;2.03;;;21.60;90.90;;;;;;5066250;28;20040;-80
2022/06/09 16:00:47;;;;;;;8.10;1.88;;;21.50;91.00;;;;;;5064365;28;20131;-80
2022/06/09 16:03:16;;;;;;;3.53;1.70;;;21.50;91.10;;;;;;5064973;28;20032;-81